createdAt,value
2022-10-23T00:00:09.732Z,12.93
2022-10-23T00:00:31.864Z,12.98
2022-10-23T00:00:53.733Z,13.57
2022-10-23T00:01:20.378Z,11.85
2022-10-23T00:01:43.446Z,11.82
2022-10-23T00:02:05.685Z,12.20
2022-10-23T00:02:27.859Z,11.77
2022-10-23T00:02:54.099Z,14.27
2022-10-23T00:03:15.816Z,12.52
2022-10-23T00:03:37.619Z,12.90
2022-10-23T00:04:13.702Z,12.23
2022-10-23T00:04:35.913Z,13.13
2022-10-23T00:04:58.480Z,11.43
2022-10-23T00:05:21.564Z,12.32
2022-10-23T00:05:43.332Z,12.00
2022-10-23T00:06:05.865Z,10.35
2022-10-23T00:06:29.914Z,10.98
2022-10-23T00:06:51.815Z,10.70
2022-10-23T00:07:13.589Z,11.30
2022-10-23T00:07:35.346Z,12.25
2022-10-23T00:07:58.562Z,11.73
2022-10-23T00:08:20.319Z,11.00
2022-10-23T00:08:42.471Z,10.30
2022-10-23T00:09:07.002Z,11.77
2022-10-23T00:09:28.804Z,13.70
2022-10-23T00:09:50.904Z,14.60
2022-10-23T00:10:13.043Z,12.02
2022-10-23T00:10:35.379Z,11.15
2022-10-23T00:10:57.713Z,12.27
2022-10-23T00:11:22.535Z,12.90
2022-10-23T00:11:47.543Z,13.27
2022-10-23T00:12:09.722Z,10.75
2022-10-23T00:12:32.367Z,11.65
2022-10-23T00:12:54.785Z,11.93
2022-10-23T00:13:16.908Z,11.70
2022-10-23T00:13:39.303Z,11.82
2022-10-23T00:14:03.014Z,10.70
2022-10-23T00:14:25.603Z,11.10
2022-10-23T00:14:47.739Z,13.38
2022-10-23T00:15:10.123Z,12.05
2022-10-23T00:15:32.497Z,12.18
2022-10-23T00:15:55.443Z,11.55
2022-10-23T00:16:17.376Z,12.18
2022-10-23T00:16:39.314Z,16.27
2022-10-23T00:17:01.434Z,12.40
2022-10-23T00:17:23.567Z,15.27
2022-10-23T00:17:45.864Z,13.38
2022-10-23T00:18:08.014Z,12.63
2022-10-23T00:18:30.223Z,13.75
2022-10-23T00:18:52.244Z,11.48
2022-10-23T00:19:14.540Z,12.52
2022-10-23T00:19:36.760Z,14.80
2022-10-23T00:19:58.844Z,14.02
2022-10-23T00:20:21.808Z,11.43
2022-10-23T00:20:43.624Z,13.48
2022-10-23T00:21:06.427Z,14.48
2022-10-23T00:21:28.649Z,14.80
2022-10-23T00:21:50.949Z,16.00
2022-10-23T00:22:12.696Z,15.38
2022-10-23T00:22:34.719Z,15.95
2022-10-23T00:22:56.898Z,14.63
2022-10-23T00:23:18.643Z,13.43
2022-10-23T00:23:40.715Z,15.35
2022-10-23T00:24:02.507Z,14.30
2022-10-23T00:24:24.717Z,14.05
2022-10-23T00:24:46.466Z,14.68
2022-10-23T00:25:11.339Z,12.88
2022-10-23T00:25:33.657Z,14.40
2022-10-23T00:25:55.473Z,15.55
2022-10-23T00:26:17.804Z,15.82
2022-10-23T00:26:40.745Z,14.90
2022-10-23T00:27:02.906Z,15.48
2022-10-23T00:27:25.305Z,13.95
2022-10-23T00:27:47.442Z,13.98
2022-10-23T00:28:09.222Z,15.82
2022-10-23T00:28:31.413Z,15.50
2022-10-23T00:28:54.724Z,13.70
2022-10-23T00:29:16.857Z,14.68
2022-10-23T00:29:38.996Z,13.52
2022-10-23T00:30:01.346Z,14.40
2022-10-23T00:30:23.485Z,15.52
2022-10-23T00:30:45.664Z,15.50
2022-10-23T00:31:07.442Z,15.40
2022-10-23T00:31:29.555Z,17.45
2022-10-23T00:31:51.717Z,20.83
2022-10-23T00:32:13.886Z,18.40
2022-10-23T00:32:36.052Z,20.25
2022-10-23T00:32:57.866Z,19.70
2022-10-23T00:33:19.655Z,17.08
2022-10-23T00:33:42.206Z,20.02
2022-10-23T00:34:07.959Z,17.48
2022-10-23T00:34:30.166Z,16.38
2022-10-23T00:34:52.327Z,17.20
2022-10-23T00:35:14.569Z,17.83
2022-10-23T00:35:40.521Z,18.63
2022-10-23T00:36:09.286Z,15.88
2022-10-23T00:36:31.436Z,17.25
2022-10-23T00:36:53.600Z,18.45
2022-10-23T00:37:15.821Z,19.13
2022-10-23T00:37:37.982Z,17.45
2022-10-23T00:37:59.689Z,17.08
2022-10-23T00:38:21.798Z,17.15
2022-10-23T00:38:44.313Z,18.95
2022-10-23T00:39:07.043Z,18.88
2022-10-23T00:39:28.851Z,19.42
2022-10-23T00:39:50.673Z,18.92
2022-10-23T00:40:12.954Z,17.38
2022-10-23T00:40:35.474Z,17.90
2022-10-23T00:40:57.288Z,17.98
2022-10-23T00:41:21.640Z,20.73
2022-10-23T00:41:43.818Z,19.42
2022-10-23T00:42:06.132Z,20.58
2022-10-23T00:42:27.914Z,20.83
2022-10-23T00:42:50.070Z,20.27
2022-10-23T00:43:22.685Z,19.48
2022-10-23T00:44:00.002Z,21.55
2022-10-23T00:44:22.135Z,22.55
2022-10-23T00:44:43.811Z,21.70
2022-10-23T00:45:17.676Z,21.20
2022-10-23T00:45:39.787Z,25.08
2022-10-23T00:46:02.003Z,23.70
2022-10-23T00:46:24.171Z,22.38
2022-10-23T00:46:46.315Z,19.92
2022-10-23T00:47:08.480Z,24.17
2022-10-23T00:47:30.292Z,22.83
2022-10-23T00:47:53.129Z,24.70
2022-10-23T00:48:15.342Z,22.80
2022-10-23T00:48:37.635Z,24.35
2022-10-23T00:49:00.350Z,25.48
2022-10-23T00:49:23.034Z,25.83
2022-10-23T00:49:44.824Z,23.95
2022-10-23T00:50:07.448Z,22.90
2022-10-23T00:50:33.850Z,23.52
2022-10-23T00:50:56.337Z,25.55
2022-10-23T00:51:18.782Z,26.50
2022-10-23T00:51:52.725Z,26.25
2022-10-23T00:52:14.944Z,28.17
2022-10-23T00:52:41.620Z,27.88
2022-10-23T00:53:04.892Z,27.92
2022-10-23T00:53:27.059Z,27.88
2022-10-23T00:54:01.216Z,26.83
2022-10-23T00:54:36.720Z,28.05
2022-10-23T00:54:59.039Z,27.65
2022-10-23T00:55:22.192Z,28.15
2022-10-23T00:55:46.932Z,26.45
2022-10-23T00:56:09.153Z,28.17
2022-10-23T00:56:33.378Z,27.08
2022-10-23T00:56:56.839Z,28.85
2022-10-23T00:57:19.293Z,26.20
2022-10-23T00:57:44.042Z,28.27
2022-10-23T00:58:06.154Z,30.52
2022-10-23T00:58:28.267Z,31.08
2022-10-23T00:58:50.433Z,31.38
2022-10-23T00:59:13.073Z,26.10
2022-10-23T00:59:35.308Z,28.20
2022-10-23T00:59:57.166Z,27.77
2022-10-23T01:00:26.041Z,29.23
2022-10-23T01:00:50.592Z,31.85
2022-10-23T01:01:19.315Z,30.42
2022-10-23T01:01:41.589Z,28.17
2022-10-23T01:02:05.002Z,28.92
2022-10-23T01:02:27.273Z,31.52
2022-10-23T01:02:49.693Z,29.83
2022-10-23T01:03:11.725Z,27.92
2022-10-23T01:03:33.859Z,30.65
2022-10-23T01:03:56.027Z,29.13
2022-10-23T01:04:18.309Z,29.93
2022-10-23T01:04:40.449Z,29.45
2022-10-23T01:05:02.606Z,29.80
2022-10-23T01:05:28.111Z,29.17
2022-10-23T01:05:54.582Z,28.25
2022-10-23T01:06:30.761Z,29.35
2022-10-23T01:07:02.165Z,30.45
2022-10-23T01:07:33.356Z,31.52
2022-10-23T01:07:57.869Z,29.58
2022-10-23T01:08:54.510Z,29.95
2022-10-23T01:09:16.610Z,28.50
2022-10-23T01:09:38.971Z,29.45
2022-10-23T01:10:07.518Z,31.38
2022-10-23T01:10:37.645Z,30.95
2022-10-23T01:11:04.710Z,32.53
2022-10-23T01:11:33.539Z,30.25
2022-10-23T01:11:55.236Z,31.02
2022-10-23T01:12:32.032Z,33.03
2022-10-23T01:13:00.101Z,30.88
2022-10-23T01:13:26.373Z,33.42
2022-10-23T01:13:48.601Z,31.98
2022-10-23T01:14:20.440Z,31.15
2022-10-23T01:14:52.558Z,30.38
2022-10-23T01:15:18.703Z,30.98
2022-10-23T01:15:48.913Z,29.38
2022-10-23T01:16:16.898Z,30.80
2022-10-23T01:16:45.104Z,29.17
2022-10-23T01:17:10.662Z,32.10
2022-10-23T01:17:56.077Z,33.08
2022-10-23T01:18:30.830Z,30.80
2022-10-23T01:19:02.308Z,30.33
2022-10-23T01:19:27.864Z,29.77
2022-10-23T01:19:50.072Z,32.85
2022-10-23T01:20:25.716Z,32.97
2022-10-23T01:20:51.749Z,28.98
2022-10-23T01:21:34.887Z,29.02
2022-10-23T01:21:57.018Z,28.63
2022-10-23T01:22:34.556Z,27.73
2022-10-23T01:23:23.403Z,26.10
2022-10-23T01:24:12.151Z,32.78
2022-10-23T01:24:57.063Z,29.00
2022-10-23T01:25:19.141Z,29.50
2022-10-23T01:25:59.915Z,28.13
2022-10-23T01:26:24.827Z,28.55
2022-10-23T01:27:05.593Z,28.30
2022-10-23T01:27:38.595Z,25.02
2022-10-23T01:28:21.006Z,26.80
2022-10-23T01:28:45.609Z,28.98
2022-10-23T01:29:15.101Z,28.63
2022-10-23T01:29:44.960Z,25.80
2022-10-23T01:30:07.247Z,28.45
2022-10-23T01:30:30.076Z,28.35
2022-10-23T01:30:53.246Z,26.67
2022-10-23T01:31:18.209Z,28.33
2022-10-23T01:31:45.106Z,27.65
2022-10-23T01:32:14.716Z,26.48
2022-10-23T01:32:49.440Z,27.58
2022-10-23T01:33:15.365Z,26.98
2022-10-23T01:33:40.657Z,27.55
2022-10-23T01:34:15.074Z,26.60
2022-10-23T01:35:30.308Z,25.23
2022-10-23T01:36:05.609Z,24.67
2022-10-23T01:36:30.644Z,28.63
2022-10-23T01:36:54.673Z,27.88
2022-10-23T01:37:23.371Z,26.55
2022-10-23T01:37:46.798Z,26.02
2022-10-23T01:38:08.927Z,26.90
2022-10-23T01:38:40.415Z,26.05
2022-10-23T01:39:24.830Z,26.65
2022-10-23T01:39:52.842Z,26.92
2022-10-23T01:40:22.667Z,28.98
2022-10-23T01:40:57.693Z,26.70
2022-10-23T01:41:40.080Z,26.38
2022-10-23T01:42:11.809Z,26.20
2022-10-23T01:42:53.906Z,28.35
2022-10-23T01:43:20.300Z,26.27
2022-10-23T01:44:04.786Z,26.13
2022-10-23T01:44:29.805Z,28.48
2022-10-23T01:44:58.436Z,27.58
2022-10-23T01:45:36.579Z,26.52
2022-10-23T01:46:02.947Z,25.95
2022-10-23T01:46:25.940Z,26.63
2022-10-23T01:46:49.683Z,26.35
2022-10-23T01:47:14.047Z,27.23
2022-10-23T01:47:36.686Z,29.00
2022-10-23T01:48:01.648Z,29.77
2022-10-23T01:48:25.203Z,28.15
2022-10-23T01:48:51.319Z,25.67
2022-10-23T01:49:14.599Z,29.83
2022-10-23T01:49:39.377Z,27.50
2022-10-23T01:50:02.443Z,28.20
2022-10-23T01:50:25.499Z,29.65
2022-10-23T01:50:47.516Z,30.67
2022-10-23T01:51:11.705Z,29.17
2022-10-23T01:51:36.779Z,28.52
2022-10-23T01:52:03.421Z,27.98
2022-10-23T01:52:25.975Z,27.95
2022-10-23T01:52:48.175Z,26.83
2022-10-23T01:53:10.553Z,29.35
2022-10-23T01:53:35.491Z,28.73
2022-10-23T01:54:00.015Z,27.80
2022-10-23T01:54:26.537Z,28.33
2022-10-23T01:54:51.510Z,29.20
2022-10-23T01:55:14.498Z,29.05
2022-10-23T01:55:39.044Z,27.60
2022-10-23T01:56:03.971Z,26.92
2022-10-23T01:56:35.549Z,31.50
2022-10-23T01:56:58.615Z,33.15
2022-10-23T01:57:23.210Z,29.20
2022-10-23T01:57:47.264Z,30.27
2022-10-23T01:58:11.159Z,32.00
2022-10-23T01:58:35.051Z,28.98
2022-10-23T01:58:58.610Z,34.03
2022-10-23T01:59:25.727Z,31.92
2022-10-23T01:59:55.305Z,31.92
2022-10-23T02:00:19.780Z,28.23
2022-10-23T02:00:42.932Z,28.55
2022-10-23T02:01:07.067Z,31.20
2022-10-23T02:01:31.512Z,31.20
2022-10-23T02:01:57.803Z,32.25
2022-10-23T02:02:22.933Z,30.88
2022-10-23T02:02:47.556Z,32.90
2022-10-23T02:03:10.174Z,34.60
2022-10-23T02:03:35.500Z,34.63
2022-10-23T02:04:30.941Z,34.53
2022-10-23T02:05:14.576Z,33.53
2022-10-23T02:05:37.824Z,36.58
2022-10-23T02:06:00.140Z,33.13
2022-10-23T02:06:21.944Z,36.55
2022-10-23T02:06:44.085Z,36.17
2022-10-23T02:07:06.279Z,35.83
2022-10-23T02:07:28.117Z,32.22
2022-10-23T02:07:50.591Z,32.40
2022-10-23T02:08:12.746Z,32.67
2022-10-23T02:08:35.009Z,32.65
2022-10-23T02:08:57.161Z,31.05
2022-10-23T02:09:19.087Z,30.63
2022-10-23T02:09:41.284Z,32.83
2022-10-23T02:10:05.878Z,32.63
2022-10-23T02:10:33.246Z,30.05
2022-10-23T02:11:15.576Z,32.35
2022-10-23T02:11:44.326Z,31.67
2022-10-23T02:13:12.606Z,28.38
2022-10-23T02:13:39.018Z,30.80
2022-10-23T02:14:22.511Z,29.52
2022-10-23T02:14:44.636Z,30.33
2022-10-23T02:15:14.812Z,31.15
2022-10-23T02:15:41.355Z,31.77
2022-10-23T02:16:09.697Z,30.52
2022-10-23T02:16:43.294Z,34.72
2022-10-23T02:17:09.821Z,33.78
2022-10-23T02:17:37.982Z,32.50
2022-10-23T02:18:00.270Z,34.00
2022-10-23T02:18:22.364Z,31.17
2022-10-23T02:19:12.160Z,31.88
2022-10-23T02:19:38.790Z,30.50
2022-10-23T02:20:00.852Z,29.33
2022-10-23T02:20:35.321Z,29.52
2022-10-23T02:21:01.827Z,32.67
2022-10-23T02:21:28.463Z,31.25
2022-10-23T02:21:59.523Z,29.60
2022-10-23T02:22:21.925Z,32.65
2022-10-23T02:22:54.428Z,33.33
2022-10-23T02:23:43.438Z,29.98
2022-10-23T02:24:08.136Z,31.80
2022-10-23T02:24:42.009Z,33.42
2022-10-23T02:25:12.805Z,28.80
2022-10-23T02:25:37.945Z,31.38
2022-10-23T02:26:09.292Z,29.73
2022-10-23T02:26:35.109Z,30.15
2022-10-23T02:27:01.122Z,33.03
2022-10-23T02:27:35.991Z,31.15
2022-10-23T02:28:01.729Z,33.05
2022-10-23T02:28:28.505Z,29.77
2022-10-23T02:28:53.053Z,32.40
2022-10-23T02:29:39.076Z,31.20
2022-10-23T02:30:11.868Z,32.58
2022-10-23T02:30:35.600Z,33.13
2022-10-23T02:30:59.639Z,31.50
2022-10-23T02:31:23.388Z,30.60
2022-10-23T02:31:45.874Z,32.35
2022-10-23T02:32:10.197Z,30.75
2022-10-23T02:32:33.304Z,30.27
2022-10-23T02:32:56.119Z,30.23
2022-10-23T02:33:18.859Z,30.38
2022-10-23T02:33:41.209Z,29.30
2022-10-23T02:34:03.472Z,31.55
2022-10-23T02:34:25.296Z,30.98
2022-10-23T02:34:47.989Z,30.40
2022-10-23T02:35:10.176Z,31.75
2022-10-23T02:35:32.411Z,32.53
2022-10-23T02:35:54.254Z,33.17
2022-10-23T02:36:17.308Z,32.03
2022-10-23T02:36:39.764Z,30.90
2022-10-23T02:37:01.896Z,29.88
2022-10-23T02:37:25.472Z,32.05
2022-10-23T02:37:55.634Z,32.35
2022-10-23T02:38:29.493Z,30.98
2022-10-23T02:38:51.433Z,30.70
2022-10-23T02:39:13.339Z,31.25
2022-10-23T02:39:35.253Z,28.70
2022-10-23T02:39:57.153Z,31.10
2022-10-23T02:40:19.070Z,34.08
2022-10-23T02:40:42.553Z,28.33
2022-10-23T02:41:19.625Z,29.45
2022-10-23T02:41:44.715Z,33.15
2022-10-23T02:42:06.801Z,32.45
2022-10-23T02:42:31.660Z,30.08
2022-10-23T02:43:06.691Z,31.83
2022-10-23T02:43:33.018Z,29.00
2022-10-23T02:44:01.056Z,33.35
2022-10-23T02:44:34.322Z,31.23
2022-10-23T02:45:15.227Z,32.90
2022-10-23T02:46:20.112Z,31.00
2022-10-23T02:46:50.802Z,29.73
2022-10-23T02:47:46.072Z,31.90
2022-10-23T02:48:12.670Z,33.38
2022-10-23T02:48:43.271Z,33.05
2022-10-23T02:49:17.806Z,29.90
2022-10-23T02:49:45.246Z,31.58
2022-10-23T02:50:07.398Z,34.90
2022-10-23T02:50:32.937Z,29.85
2022-10-23T02:51:06.230Z,31.90
2022-10-23T02:51:48.574Z,33.95
2022-10-23T02:52:25.171Z,31.10
2022-10-23T02:53:10.604Z,34.75
2022-10-23T02:54:04.438Z,35.35
2022-10-23T02:54:40.154Z,34.13
2022-10-23T02:55:07.965Z,29.20
2022-10-23T02:55:48.929Z,31.35
2022-10-23T02:56:36.648Z,32.95
2022-10-23T02:57:05.243Z,33.97
2022-10-23T02:57:30.131Z,33.80
2022-10-23T02:57:54.965Z,34.95
2022-10-23T02:58:17.097Z,32.55
2022-10-23T02:58:49.544Z,31.40
2022-10-23T02:59:34.128Z,33.27
2022-10-23T03:00:04.559Z,34.03
2022-10-23T03:00:29.942Z,34.03
2022-10-23T03:00:57.712Z,32.88
2022-10-23T03:01:23.631Z,32.15
2022-10-23T03:01:50.745Z,33.03
2022-10-23T03:02:27.075Z,33.63
2022-10-23T03:02:57.664Z,34.35
2022-10-23T03:03:24.967Z,33.90
2022-10-23T03:03:51.514Z,30.63
2022-10-23T03:04:15.578Z,32.42
2022-10-23T03:04:38.767Z,34.88
2022-10-23T03:05:02.064Z,32.90
2022-10-23T03:05:34.536Z,33.25
2022-10-23T03:05:56.666Z,33.75
2022-10-23T03:06:18.827Z,31.70
2022-10-23T03:06:40.717Z,29.83
2022-10-23T03:07:02.882Z,30.35
2022-10-23T03:07:26.594Z,30.58
2022-10-23T03:07:49.406Z,32.38
2022-10-23T03:08:13.042Z,32.50
2022-10-23T03:08:42.192Z,30.35
2022-10-23T03:09:10.549Z,34.58
2022-10-23T03:09:32.274Z,34.20
2022-10-23T03:09:54.397Z,31.75
2022-10-23T03:10:16.224Z,29.75
2022-10-23T03:10:38.409Z,30.95
2022-10-23T03:11:00.613Z,32.58
2022-10-23T03:11:23.025Z,31.85
2022-10-23T03:11:45.185Z,28.98
2022-10-23T03:12:07.054Z,33.58
2022-10-23T03:12:28.803Z,30.67
2022-10-23T03:12:50.799Z,31.25
2022-10-23T03:13:13.020Z,33.05
2022-10-23T03:13:35.124Z,33.08
2022-10-23T03:13:57.294Z,31.30
2022-10-23T03:14:19.621Z,31.88
2022-10-23T03:14:41.318Z,34.88
2022-10-23T03:15:03.433Z,36.90
2022-10-23T03:15:25.235Z,34.45
2022-10-23T03:15:47.422Z,31.08
2022-10-23T03:16:09.309Z,32.15
2022-10-23T03:16:31.417Z,34.90
2022-10-23T03:16:53.964Z,33.80
2022-10-23T03:17:17.134Z,31.42
2022-10-23T03:17:39.206Z,32.72
2022-10-23T03:18:01.361Z,30.95
2022-10-23T03:18:23.161Z,33.85
2022-10-23T03:18:45.482Z,34.65
2022-10-23T03:19:07.302Z,35.00
2022-10-23T03:19:29.049Z,33.08
2022-10-23T03:19:50.915Z,32.13
2022-10-23T03:20:13.151Z,32.63
2022-10-23T03:20:35.317Z,30.35
2022-10-23T03:20:57.226Z,34.10
2022-10-23T03:21:19.911Z,35.15
2022-10-23T03:21:42.089Z,32.42
2022-10-23T03:22:03.843Z,32.70
2022-10-23T03:22:25.845Z,32.17
2022-10-23T03:22:47.600Z,31.95
2022-10-23T03:23:12.369Z,33.92
2022-10-23T03:23:34.531Z,34.20
2022-10-23T03:23:56.285Z,35.72
2022-10-23T03:24:17.999Z,34.78
2022-10-23T03:24:40.123Z,34.50
2022-10-23T03:25:02.216Z,37.35
2022-10-23T03:25:24.297Z,34.90
2022-10-23T03:25:45.996Z,36.20
2022-10-23T03:26:08.264Z,37.38
2022-10-23T03:26:30.454Z,33.88
2022-10-23T03:26:52.680Z,31.48
2022-10-23T03:27:14.896Z,34.67
2022-10-23T03:27:36.853Z,33.78
2022-10-23T03:27:58.630Z,34.30
2022-10-23T03:28:20.563Z,33.47
2022-10-23T03:28:42.727Z,32.28
2022-10-23T03:29:05.488Z,33.47
2022-10-23T03:29:27.882Z,34.58
2022-10-23T03:29:49.626Z,34.97
2022-10-23T03:30:11.651Z,35.65
2022-10-23T03:30:33.402Z,34.58
2022-10-23T03:30:56.014Z,35.22
2022-10-23T03:31:17.719Z,35.38
2022-10-23T03:31:39.827Z,35.80
2022-10-23T03:32:01.995Z,34.00
2022-10-23T03:32:23.708Z,36.53
2022-10-23T03:32:45.884Z,35.30
2022-10-23T03:33:07.650Z,34.08
2022-10-23T03:33:30.612Z,34.25
2022-10-23T03:33:52.364Z,34.03
2022-10-23T03:34:15.069Z,35.80
2022-10-23T03:34:36.868Z,37.53
2022-10-23T03:34:58.730Z,35.55
2022-10-23T03:35:20.516Z,38.78
2022-10-23T03:35:42.309Z,36.38
2022-10-23T03:36:04.598Z,37.22
2022-10-23T03:36:26.395Z,35.65
2022-10-23T03:36:48.133Z,34.70
2022-10-23T03:37:10.564Z,35.35
2022-10-23T03:37:32.704Z,34.85
2022-10-23T03:37:54.451Z,35.85
2022-10-23T03:38:16.287Z,33.13
2022-10-23T03:38:38.433Z,34.63
2022-10-23T03:39:00.582Z,34.58
2022-10-23T03:39:22.469Z,34.50
2022-10-23T03:39:44.216Z,32.05
2022-10-23T03:40:06.546Z,33.97
2022-10-23T03:40:28.652Z,33.55
2022-10-23T03:40:50.448Z,34.25
2022-10-23T03:41:12.594Z,31.92
2022-10-23T03:41:34.686Z,34.75
2022-10-23T03:41:56.539Z,34.67
2022-10-23T03:42:18.418Z,35.20
2022-10-23T03:42:40.176Z,35.40
2022-10-23T03:43:02.324Z,32.53
2022-10-23T03:43:24.021Z,31.98
2022-10-23T03:43:46.167Z,32.53
2022-10-23T03:44:07.912Z,32.55
2022-10-23T03:44:31.229Z,33.63
2022-10-23T03:44:53.395Z,33.47
2022-10-23T03:45:15.242Z,33.42
2022-10-23T03:45:38.498Z,32.38
2022-10-23T03:46:02.015Z,33.40
2022-10-23T03:46:24.387Z,31.33
2022-10-23T03:46:46.182Z,33.40
2022-10-23T03:47:10.091Z,32.28
2022-10-23T03:47:34.958Z,32.83
2022-10-23T03:47:57.139Z,30.30
2022-10-23T03:48:18.897Z,29.60
2022-10-23T03:48:42.133Z,30.65
2022-10-23T03:49:04.458Z,32.70
2022-10-23T03:49:26.565Z,30.73
2022-10-23T03:49:48.284Z,30.08
2022-10-23T03:50:10.921Z,30.50
2022-10-23T03:50:32.906Z,32.00
2022-10-23T03:50:54.608Z,32.92
2022-10-23T03:51:16.370Z,29.80
2022-10-23T03:51:41.629Z,30.80
2022-10-23T03:52:03.757Z,30.88
2022-10-23T03:52:25.897Z,30.48
2022-10-23T03:52:47.699Z,28.83
2022-10-23T03:53:09.438Z,27.90
2022-10-23T03:53:31.590Z,32.30
2022-10-23T03:53:53.713Z,28.40
2022-10-23T03:54:15.482Z,29.48
2022-10-23T03:54:37.315Z,32.40
2022-10-23T03:54:59.541Z,27.83
2022-10-23T03:55:21.250Z,31.05
2022-10-23T03:55:44.706Z,30.98
2022-10-23T03:56:06.931Z,29.88
2022-10-23T03:56:29.046Z,31.50
2022-10-23T03:56:53.681Z,29.17
2022-10-23T03:57:18.359Z,30.73
2022-10-23T03:57:40.183Z,29.35
2022-10-23T03:58:02.332Z,28.08
2022-10-23T03:58:24.436Z,24.77
2022-10-23T03:58:46.142Z,25.52
2022-10-23T03:59:07.880Z,28.90
2022-10-23T03:59:30.053Z,28.88
2022-10-23T03:59:52.437Z,28.55
2022-10-23T04:00:14.544Z,27.83
2022-10-23T04:00:36.337Z,28.13
2022-10-23T04:00:58.534Z,29.30
2022-10-23T04:01:20.762Z,27.77
2022-10-23T04:01:43.063Z,31.60
2022-10-23T04:02:05.401Z,30.00
2022-10-23T04:02:27.752Z,28.67
2022-10-23T04:02:49.633Z,30.30
2022-10-23T04:03:11.347Z,29.30
2022-10-23T04:03:33.460Z,27.65
2022-10-23T04:03:55.664Z,27.65
2022-10-23T04:04:17.822Z,27.97
2022-10-23T04:04:39.957Z,29.55
2022-10-23T04:05:02.338Z,29.20
2022-10-23T04:05:24.454Z,29.02
2022-10-23T04:05:46.817Z,29.92
2022-10-23T04:06:09.054Z,25.27
2022-10-23T04:06:31.247Z,25.20
2022-10-23T04:06:53.252Z,26.38
2022-10-23T04:07:15.085Z,26.02
2022-10-23T04:07:37.270Z,27.98
2022-10-23T04:07:59.064Z,27.63
2022-10-23T04:08:20.894Z,27.80
2022-10-23T04:08:46.386Z,27.33
2022-10-23T04:09:08.223Z,29.02
2022-10-23T04:09:30.529Z,28.63
2022-10-23T04:09:52.251Z,28.90
2022-10-23T04:10:14.007Z,28.55
2022-10-23T04:10:35.787Z,26.40
2022-10-23T04:10:57.983Z,27.60
2022-10-23T04:11:20.145Z,26.20
2022-10-23T04:11:41.870Z,25.23
2022-10-23T04:12:04.075Z,26.48
2022-10-23T04:12:26.192Z,28.15
2022-10-23T04:12:47.908Z,28.30
2022-10-23T04:13:10.093Z,29.83
2022-10-23T04:13:32.286Z,27.95
2022-10-23T04:13:54.038Z,27.95
2022-10-23T04:14:15.861Z,26.98
2022-10-23T04:14:38.052Z,28.10
2022-10-23T04:15:00.276Z,30.52
2022-10-23T04:15:22.124Z,28.38
2022-10-23T04:15:51.225Z,28.70
2022-10-23T04:16:13.013Z,26.88
2022-10-23T04:16:34.690Z,27.88
2022-10-23T04:16:56.819Z,26.75
2022-10-23T04:17:18.581Z,28.55
2022-10-23T04:17:40.837Z,28.63
2022-10-23T04:18:02.952Z,26.13
2022-10-23T04:18:25.092Z,27.00
2022-10-23T04:18:47.302Z,28.15
2022-10-23T04:19:09.558Z,27.30
2022-10-23T04:19:31.462Z,28.50
2022-10-23T04:19:53.219Z,28.92
2022-10-23T04:20:15.424Z,27.88
2022-10-23T04:20:37.123Z,27.75
2022-10-23T04:20:58.853Z,29.25
2022-10-23T04:21:21.190Z,31.77
2022-10-23T04:21:43.640Z,29.83
2022-10-23T04:22:05.404Z,28.80
2022-10-23T04:22:28.410Z,28.73
2022-10-23T04:22:50.401Z,27.45
2022-10-23T04:23:12.122Z,28.30
2022-10-23T04:23:34.695Z,30.35
2022-10-23T04:23:56.811Z,29.90
2022-10-23T04:24:18.973Z,30.75
2022-10-23T04:24:45.384Z,29.50
2022-10-23T04:25:07.589Z,30.23
2022-10-23T04:25:29.829Z,28.67
2022-10-23T04:25:51.925Z,28.08
2022-10-23T04:26:14.041Z,27.75
2022-10-23T04:26:36.222Z,30.23
2022-10-23T04:26:58.305Z,31.02
2022-10-23T04:27:20.460Z,31.95
2022-10-23T04:27:42.623Z,31.52
2022-10-23T04:28:05.024Z,31.33
2022-10-23T04:28:27.145Z,31.88
2022-10-23T04:28:50.405Z,30.27
2022-10-23T04:29:12.231Z,31.50
2022-10-23T04:29:34.349Z,27.55
2022-10-23T04:29:58.359Z,28.52
2022-10-23T04:30:20.944Z,30.10
2022-10-23T04:30:43.070Z,31.45
2022-10-23T04:31:05.204Z,30.55
2022-10-23T04:31:27.334Z,28.05
2022-10-23T04:31:49.596Z,29.08
2022-10-23T04:32:12.027Z,31.05
2022-10-23T04:32:34.123Z,31.02
2022-10-23T04:32:56.276Z,30.50
2022-10-23T04:33:18.587Z,28.57
2022-10-23T04:33:40.302Z,32.28
2022-10-23T04:34:02.481Z,29.90
2022-10-23T04:34:24.305Z,31.05
2022-10-23T04:34:46.405Z,32.22
2022-10-23T04:35:08.397Z,29.67
2022-10-23T04:35:30.555Z,30.27
2022-10-23T04:35:52.724Z,29.58
2022-10-23T04:36:14.848Z,29.58
2022-10-23T04:36:36.597Z,28.83
2022-10-23T04:36:58.717Z,30.13
2022-10-23T04:37:20.952Z,29.92
2022-10-23T04:37:43.267Z,31.95
2022-10-23T04:38:05.586Z,26.73
2022-10-23T04:38:27.306Z,28.90
2022-10-23T04:38:49.517Z,26.13
2022-10-23T04:39:11.683Z,27.58
2022-10-23T04:39:33.529Z,29.92
2022-10-23T04:39:55.296Z,31.58
2022-10-23T04:40:17.170Z,28.42
2022-10-23T04:40:39.025Z,29.58
2022-10-23T04:41:00.795Z,30.63
2022-10-23T04:41:22.982Z,29.52
2022-10-23T04:41:45.271Z,28.70
2022-10-23T04:42:07.380Z,29.52
2022-10-23T04:42:29.157Z,29.15
2022-10-23T04:42:51.271Z,29.05
2022-10-23T04:43:13.416Z,31.13
2022-10-23T04:43:35.200Z,29.77
2022-10-23T04:43:56.951Z,30.85
2022-10-23T04:44:19.082Z,30.35
2022-10-23T04:44:40.798Z,30.42
2022-10-23T04:45:02.661Z,29.45
2022-10-23T04:45:24.400Z,27.17
2022-10-23T04:45:46.575Z,27.17
2022-10-23T04:46:08.797Z,27.63
2022-10-23T04:46:30.982Z,27.88
2022-10-23T04:46:53.114Z,30.45
2022-10-23T04:47:14.853Z,27.92
2022-10-23T04:47:36.758Z,28.02
2022-10-23T04:47:58.996Z,28.08
2022-10-23T04:48:24.402Z,29.27
2022-10-23T04:48:48.794Z,27.83
2022-10-23T04:49:10.530Z,33.35
2022-10-23T04:49:32.631Z,32.65
2022-10-23T04:49:54.738Z,31.73
2022-10-23T04:50:17.154Z,36.08
2022-10-23T04:50:39.341Z,44.20
2022-10-23T04:51:05.639Z,44.83
2022-10-23T04:51:27.368Z,42.80
2022-10-23T04:51:49.181Z,42.72
2022-10-23T04:52:11.278Z,42.35
2022-10-23T04:52:33.006Z,41.58
2022-10-23T04:52:56.328Z,42.45
2022-10-23T04:53:18.440Z,45.60
2022-10-23T04:53:40.191Z,43.22
2022-10-23T04:54:02.314Z,38.88
2022-10-23T04:54:24.454Z,34.97
2022-10-23T04:54:47.768Z,35.83
2022-10-23T04:55:09.845Z,34.50
2022-10-23T04:55:32.107Z,31.70
2022-10-23T04:55:55.033Z,33.95
2022-10-23T04:56:17.209Z,31.92
2022-10-23T04:56:39.035Z,29.40
2022-10-23T04:57:00.750Z,30.75
2022-10-23T04:57:22.932Z,31.80
2022-10-23T04:57:45.139Z,30.98
2022-10-23T04:58:07.225Z,26.48
2022-10-23T04:58:29.283Z,27.05
2022-10-23T04:58:52.509Z,28.75
2022-10-23T04:59:14.354Z,27.20
2022-10-23T04:59:36.125Z,26.08
2022-10-23T04:59:57.884Z,28.35
2022-10-23T05:00:20.316Z,27.08
2022-10-23T05:00:42.095Z,24.92
2022-10-23T05:01:03.976Z,23.67
2022-10-23T05:01:26.286Z,28.40
2022-10-23T05:01:48.176Z,27.40
2022-10-23T05:02:10.029Z,26.08
2022-10-23T05:02:31.847Z,25.00
2022-10-23T05:02:53.638Z,26.25
2022-10-23T05:03:16.225Z,25.10
2022-10-23T05:03:38.760Z,25.95
2022-10-23T05:04:00.835Z,26.95
2022-10-23T05:04:22.546Z,30.13
2022-10-23T05:04:44.244Z,31.25
2022-10-23T05:05:07.293Z,33.67
2022-10-23T05:05:29.034Z,32.05
2022-10-23T05:05:56.184Z,31.98
2022-10-23T05:06:17.935Z,34.92
2022-10-23T05:06:40.192Z,34.72
2022-10-23T05:07:02.538Z,37.28
2022-10-23T05:07:24.249Z,36.97
2022-10-23T05:07:46.543Z,35.13
2022-10-23T05:08:08.779Z,38.10
2022-10-23T05:08:30.953Z,37.80
2022-10-23T05:08:52.683Z,38.83
2022-10-23T05:09:14.870Z,35.25
2022-10-23T05:09:37.129Z,36.10
2022-10-23T05:09:59.243Z,34.97
2022-10-23T05:10:20.962Z,35.05
2022-10-23T05:10:42.957Z,34.90
2022-10-23T05:11:04.976Z,33.60
2022-10-23T05:11:27.108Z,31.70
2022-10-23T05:11:49.569Z,32.90
2022-10-23T05:12:11.338Z,29.63
2022-10-23T05:12:33.169Z,32.40
2022-10-23T05:12:54.894Z,27.77
2022-10-23T05:13:20.710Z,28.40
2022-10-23T05:13:42.876Z,28.63
2022-10-23T05:14:04.627Z,27.30
2022-10-23T05:14:26.765Z,26.80
2022-10-23T05:14:48.890Z,26.95
2022-10-23T05:15:11.237Z,28.65
2022-10-23T05:15:33.523Z,29.00
2022-10-23T05:15:55.691Z,26.08
2022-10-23T05:16:30.412Z,28.70
2022-10-23T05:17:04.765Z,27.38
2022-10-23T05:17:33.288Z,26.95
2022-10-23T05:18:02.493Z,27.42
2022-10-23T05:18:30.473Z,27.70
2022-10-23T05:18:52.588Z,30.30